createdAt,value
2022-12-25T00:02:22.934Z,74.48
2022-12-25T00:04:50.962Z,74.55
2022-12-25T00:07:19.222Z,74.74
2022-12-25T00:09:47.115Z,74.85
2022-12-25T00:12:15.118Z,74.81
2022-12-25T00:14:43.320Z,74.69
2022-12-25T00:17:11.200Z,74.72
2022-12-25T00:19:39.191Z,74.63
2022-12-25T00:22:07.398Z,74.46
2022-12-25T00:24:35.726Z,74.45
2022-12-25T00:27:03.950Z,74.61
2022-12-25T00:29:31.981Z,74.88
2022-12-25T00:32:00.263Z,74.94
2022-12-25T00:34:28.360Z,75.16
2022-12-25T00:36:56.437Z,75.28
2022-12-25T00:39:24.684Z,75.25
2022-12-25T00:42:11.852Z,75.11
2022-12-25T00:44:39.894Z,74.80
2022-12-25T00:47:08.048Z,74.74
2022-12-25T00:49:36.028Z,74.41
2022-12-25T00:52:04.275Z,74.13
2022-12-25T00:54:32.378Z,74.35
2022-12-25T00:57:00.724Z,74.50
2022-12-25T00:59:32.609Z,74.68
2022-12-25T01:02:21.423Z,74.83
2022-12-25T01:04:51.497Z,74.80
2022-12-25T01:07:20.107Z,74.88
2022-12-25T01:10:07.541Z,74.82
2022-12-25T01:12:38.434Z,74.72
2022-12-25T01:15:08.437Z,74.64
2022-12-25T01:17:36.531Z,74.75
2022-12-25T01:20:05.422Z,74.80
2022-12-25T01:22:33.704Z,74.83
2022-12-25T01:25:01.692Z,74.94
2022-12-25T01:27:29.627Z,74.90
2022-12-25T01:29:57.561Z,74.87
2022-12-25T01:32:25.593Z,74.89
2022-12-25T01:34:56.047Z,74.91
2022-12-25T01:37:25.279Z,74.69
2022-12-25T01:39:53.355Z,74.56
2022-12-25T01:42:23.887Z,74.36
2022-12-25T01:44:51.755Z,74.24
2022-12-25T01:47:19.728Z,74.13
2022-12-25T01:49:50.915Z,74.02
2022-12-25T01:52:24.732Z,74.09
2022-12-25T01:54:57.742Z,74.32
2022-12-25T01:57:30.741Z,74.55
2022-12-25T02:00:00.276Z,74.67
2022-12-25T02:02:29.681Z,74.54
2022-12-25T02:05:04.356Z,74.38
2022-12-25T02:07:35.154Z,74.30
2022-12-25T02:10:04.340Z,74.32
2022-12-25T02:12:35.710Z,74.29
2022-12-25T02:15:10.907Z,74.29
2022-12-25T02:17:44.924Z,74.22
2022-12-25T02:20:47.163Z,74.31
2022-12-25T02:23:34.869Z,74.30
2022-12-25T02:26:03.609Z,74.50
2022-12-25T02:28:45.443Z,74.78
2022-12-25T02:31:19.093Z,74.76
2022-12-25T02:34:05.040Z,74.90
2022-12-25T02:36:57.563Z,75.11
2022-12-25T02:39:58.506Z,75.22
2022-12-25T02:42:55.956Z,75.29
2022-12-25T02:46:07.154Z,75.41
2022-12-25T02:49:00.435Z,75.68
2022-12-25T02:51:51.753Z,75.82
2022-12-25T02:54:45.242Z,75.88
2022-12-25T02:57:35.586Z,75.71
2022-12-25T03:00:23.707Z,75.59
2022-12-25T03:03:11.400Z,75.46
2022-12-25T03:06:01.014Z,75.35
2022-12-25T03:08:42.989Z,75.11
2022-12-25T03:11:31.160Z,75.26
2022-12-25T03:14:22.182Z,75.26
2022-12-25T03:16:55.641Z,75.25
2022-12-25T03:19:47.535Z,75.09
2022-12-25T03:22:44.189Z,75.13
2022-12-25T03:25:31.979Z,75.43
2022-12-25T03:28:00.648Z,75.75
2022-12-25T03:31:12.362Z,75.71
2022-12-25T03:34:36.832Z,75.80
2022-12-25T03:37:13.679Z,75.83
2022-12-25T03:39:59.077Z,75.88
2022-12-25T03:42:49.445Z,75.96
2022-12-25T03:46:04.963Z,75.88
2022-12-25T03:48:55.147Z,75.87
2022-12-25T03:51:48.981Z,75.80
2022-12-25T03:54:42.501Z,75.79
2022-12-25T03:57:29.954Z,75.68
2022-12-25T04:00:16.113Z,75.45
2022-12-25T04:03:02.481Z,75.43
2022-12-25T04:05:49.053Z,75.26
2022-12-25T04:08:35.706Z,75.30
2022-12-25T04:11:22.257Z,75.03
2022-12-25T04:14:09.113Z,75.07
2022-12-25T04:16:55.742Z,75.06
2022-12-25T04:19:42.160Z,74.85
2022-12-25T04:22:28.416Z,74.78
2022-12-25T04:25:15.363Z,74.81
2022-12-25T04:28:01.683Z,74.45
2022-12-25T04:30:48.465Z,74.13
2022-12-25T04:33:35.077Z,74.43
2022-12-25T04:36:12.635Z,74.72
2022-12-25T04:38:41.978Z,74.89
2022-12-25T04:41:11.754Z,74.63
2022-12-25T04:43:40.050Z,74.79
2022-12-25T04:46:08.268Z,74.81
2022-12-25T04:48:37.070Z,74.77
2022-12-25T04:51:13.857Z,74.75
2022-12-25T04:53:42.951Z,74.68
2022-12-25T04:56:11.555Z,74.51
2022-12-25T04:58:39.902Z,74.51
2022-12-25T05:01:08.952Z,74.55
2022-12-25T05:03:37.744Z,74.57
2022-12-25T05:06:06.686Z,74.61
2022-12-25T05:08:35.466Z,74.52
2022-12-25T05:11:12.040Z,74.48
2022-12-25T05:13:40.272Z,74.50
2022-12-25T05:16:12.276Z,74.34
2022-12-25T05:18:40.601Z,74.19
2022-12-25T05:21:11.387Z,74.11
2022-12-25T05:23:39.522Z,74.12
2022-12-25T05:26:08.037Z,74.06
2022-12-25T05:28:36.084Z,73.97
2022-12-25T05:31:04.117Z,74.21
2022-12-25T05:33:32.127Z,74.37
2022-12-25T05:36:04.910Z,74.52
2022-12-25T05:38:33.101Z,74.68
2022-12-25T05:41:01.150Z,74.83
2022-12-25T05:43:29.534Z,74.93
2022-12-25T05:45:57.492Z,74.89
2022-12-25T05:48:25.386Z,74.84
2022-12-25T05:50:53.616Z,74.81
2022-12-25T05:53:21.589Z,75.08
2022-12-25T05:55:49.735Z,75.57
2022-12-25T05:58:17.624Z,75.97
2022-12-25T06:00:48.512Z,76.07
2022-12-25T06:03:16.660Z,76.21
2022-12-25T06:05:44.621Z,76.28
2022-12-25T06:08:12.607Z,76.21
2022-12-25T06:10:40.857Z,76.10
2022-12-25T06:13:08.858Z,76.07
2022-12-25T06:15:41.729Z,76.03
2022-12-25T06:18:10.296Z,76.06
2022-12-25T06:20:41.501Z,76.34
2022-12-25T06:23:09.822Z,76.52
2022-12-25T06:25:41.064Z,76.52
2022-12-25T06:28:09.304Z,76.46
2022-12-25T06:30:37.230Z,76.38
2022-12-25T06:33:05.543Z,76.16
2022-12-25T06:35:33.799Z,75.98
2022-12-25T06:38:01.617Z,75.85
2022-12-25T06:40:29.718Z,75.58
2022-12-25T06:42:57.921Z,75.48
2022-12-25T06:45:26.362Z,75.40
2022-12-25T06:47:54.337Z,75.60
2022-12-25T06:50:22.269Z,75.97
2022-12-25T06:52:50.199Z,76.23
2022-12-25T06:55:18.326Z,76.42
2022-12-25T06:57:46.323Z,76.75
2022-12-25T07:00:14.671Z,77.02
2022-12-25T07:02:47.577Z,77.31
2022-12-25T07:05:15.951Z,78.01
2022-12-25T07:07:43.889Z,78.18
2022-12-25T07:10:12.385Z,78.30
2022-12-25T07:12:40.345Z,78.35
2022-12-25T07:15:09.217Z,78.43
2022-12-25T07:17:37.406Z,78.40
2022-12-25T07:20:07.070Z,78.58
2022-12-25T07:22:35.322Z,78.70
2022-12-25T07:25:03.214Z,78.72
2022-12-25T07:27:31.171Z,78.73
2022-12-25T07:29:59.160Z,78.84
2022-12-25T07:32:30.867Z,78.72
2022-12-25T07:34:59.224Z,78.63
2022-12-25T07:37:27.276Z,78.54
2022-12-25T07:39:55.392Z,78.67
2022-12-25T07:42:25.484Z,78.86
2022-12-25T07:44:55.966Z,79.14
2022-12-25T07:47:24.161Z,79.41
2022-12-25T07:49:52.328Z,79.57
2022-12-25T07:52:20.651Z,79.57
2022-12-25T07:54:48.813Z,79.84
2022-12-25T07:57:18.113Z,79.88
2022-12-25T07:59:50.549Z,79.93
2022-12-25T08:02:19.175Z,80.10
2022-12-25T08:04:47.586Z,80.04
2022-12-25T08:07:15.698Z,80.13
2022-12-25T08:09:43.663Z,80.14
2022-12-25T08:12:11.714Z,80.16
2022-12-25T08:14:40.065Z,80.12
2022-12-25T08:17:08.334Z,80.21
2022-12-25T08:19:36.621Z,80.32
2022-12-25T08:22:04.967Z,80.26
2022-12-25T08:24:33.223Z,80.46
2022-12-25T08:27:01.344Z,80.50
2022-12-25T08:29:29.550Z,80.48
2022-12-25T08:31:57.490Z,80.45
2022-12-25T08:34:26.509Z,80.44
2022-12-25T08:36:54.666Z,80.48
2022-12-25T08:39:22.791Z,80.46
2022-12-25T08:41:50.767Z,80.31
2022-12-25T08:44:19.404Z,80.07
2022-12-25T08:46:47.618Z,80.13
2022-12-25T08:49:16.551Z,80.00
2022-12-25T08:51:45.709Z,79.93
2022-12-25T08:54:13.921Z,79.96
2022-12-25T08:56:41.936Z,79.80
2022-12-25T08:59:09.901Z,79.80
2022-12-25T09:01:38.230Z,79.74
2022-12-25T09:04:06.266Z,79.88
2022-12-25T09:06:34.291Z,79.98
2022-12-25T09:09:02.418Z,80.07
2022-12-25T09:11:30.488Z,80.08
2022-12-25T09:13:58.589Z,80.03
2022-12-25T09:16:26.811Z,79.99
2022-12-25T09:18:56.995Z,79.87
2022-12-25T09:21:25.033Z,79.78
2022-12-25T09:23:52.937Z,79.63
2022-12-25T09:26:20.932Z,79.57
2022-12-25T09:28:52.294Z,79.35
2022-12-25T09:31:22.348Z,79.36
2022-12-25T09:33:51.503Z,79.19
2022-12-25T09:36:23.247Z,79.09
2022-12-25T09:38:52.206Z,79.17
2022-12-25T09:41:31.824Z,79.21
2022-12-25T09:44:15.134Z,79.22
2022-12-25T09:47:14.514Z,78.94
2022-12-25T09:49:57.220Z,78.88
2022-12-25T09:52:42.736Z,78.78
2022-12-25T09:55:21.241Z,78.77
2022-12-25T09:57:56.696Z,78.82
2022-12-25T10:00:35.175Z,78.67
2022-12-25T10:03:13.474Z,78.56
2022-12-25T10:06:08.171Z,78.62
2022-12-25T10:08:57.944Z,78.42
2022-12-25T10:11:44.275Z,78.33
2022-12-25T10:14:26.811Z,78.12
2022-12-25T10:17:26.423Z,78.06
2022-12-25T10:20:37.544Z,77.98
2022-12-25T10:23:14.913Z,77.78
2022-12-25T10:25:44.425Z,77.74
2022-12-25T10:28:16.896Z,77.57
2022-12-25T10:30:45.466Z,77.46
2022-12-25T10:33:17.054Z,77.21
2022-12-25T10:35:46.236Z,77.07
2022-12-25T10:38:20.108Z,77.11
2022-12-25T10:40:57.293Z,76.92
2022-12-25T10:43:32.708Z,76.15
2022-12-25T10:46:00.948Z,75.92
2022-12-25T10:48:30.684Z,75.99
2022-12-25T10:50:59.313Z,75.86
2022-12-25T10:53:29.293Z,76.17
2022-12-25T10:56:03.670Z,75.89
2022-12-25T10:58:33.273Z,75.56
2022-12-25T11:01:05.072Z,75.70
2022-12-25T11:03:38.173Z,75.66
2022-12-25T11:06:20.529Z,75.13
2022-12-25T11:08:54.207Z,74.64
2022-12-25T11:11:22.732Z,74.32
2022-12-25T11:13:57.022Z,74.07
2022-12-25T11:16:30.473Z,74.10
2022-12-25T11:19:00.150Z,74.03
2022-12-25T11:21:35.081Z,74.05
2022-12-25T11:24:17.694Z,74.26
2022-12-25T11:26:52.286Z,74.35
2022-12-25T11:29:50.691Z,74.35
2022-12-25T11:32:31.672Z,73.48
2022-12-25T11:35:01.150Z,73.05
2022-12-25T11:37:46.260Z,72.54
2022-12-25T11:40:20.588Z,72.53
2022-12-25T11:43:21.951Z,72.05
2022-12-25T11:46:07.422Z,71.94
2022-12-25T11:48:44.780Z,72.42
2022-12-25T11:51:15.043Z,72.46
2022-12-25T11:53:46.433Z,72.41
2022-12-25T11:56:26.285Z,72.26
2022-12-25T11:59:00.515Z,72.23
2022-12-25T12:01:37.692Z,72.30
2022-12-25T12:04:27.455Z,72.40
2022-12-25T12:07:00.748Z,72.61
2022-12-25T12:10:01.018Z,72.62
2022-12-25T12:12:48.260Z,72.90
2022-12-25T12:15:27.524Z,72.96
2022-12-25T12:17:56.394Z,72.99
2022-12-25T12:20:29.625Z,72.94
2022-12-25T12:23:00.142Z,73.07
2022-12-25T12:25:29.748Z,73.31
2022-12-25T12:28:05.203Z,73.42
2022-12-25T12:30:35.881Z,73.67
2022-12-25T12:33:07.145Z,73.63
2022-12-25T12:35:38.844Z,73.27
2022-12-25T12:38:14.784Z,73.13
2022-12-25T12:40:52.564Z,73.03
2022-12-25T12:43:32.533Z,72.75
2022-12-25T12:46:16.751Z,72.47
2022-12-25T12:48:49.084Z,72.69
2022-12-25T12:51:29.291Z,72.59
2022-12-25T12:54:22.561Z,72.91
2022-12-25T12:57:06.618Z,72.93
2022-12-25T12:59:43.688Z,73.16
2022-12-25T13:02:54.285Z,73.09
2022-12-25T13:05:41.529Z,73.24
2022-12-25T13:08:30.922Z,73.40
2022-12-25T13:11:17.786Z,73.62
2022-12-25T13:13:48.678Z,73.86
2022-12-25T13:16:23.397Z,73.92
2022-12-25T13:18:53.641Z,74.02
2022-12-25T13:21:27.462Z,73.99
2022-12-25T13:24:07.489Z,74.09
2022-12-25T13:26:35.575Z,74.34
2022-12-25T13:29:09.478Z,74.62
2022-12-25T13:31:40.730Z,74.73
2022-12-25T13:34:32.095Z,74.74
2022-12-25T13:37:08.380Z,74.74
2022-12-25T13:39:39.475Z,74.76
2022-12-25T13:42:10.079Z,74.65
2022-12-25T13:44:42.858Z,74.60
2022-12-25T13:47:33.955Z,74.63
2022-12-25T13:50:21.024Z,74.62
2022-12-25T13:52:50.598Z,74.55
2022-12-25T13:55:26.780Z,74.59
2022-12-25T13:57:56.062Z,74.68
2022-12-25T14:00:32.334Z,74.80
2022-12-25T14:03:00.798Z,74.80
2022-12-25T14:05:42.755Z,76.46
2022-12-25T14:08:16.129Z,77.99
2022-12-25T14:10:49.709Z,82.91
2022-12-25T14:13:21.207Z,80.09
2022-12-25T14:15:49.646Z,76.74
2022-12-25T14:18:19.889Z,75.06
2022-12-25T14:21:01.760Z,74.30
2022-12-25T14:23:39.495Z,74.42
2022-12-25T14:26:07.905Z,74.57
2022-12-25T14:28:38.046Z,74.55
2022-12-25T14:31:06.273Z,74.52
2022-12-25T14:33:39.228Z,74.43
2022-12-25T14:36:07.926Z,74.39
2022-12-25T14:38:36.232Z,74.27
2022-12-25T14:41:33.683Z,74.29
2022-12-25T14:44:04.189Z,74.04
2022-12-25T14:46:34.137Z,73.84
2022-12-25T14:49:05.466Z,73.72
2022-12-25T14:51:38.927Z,73.57
2022-12-25T14:54:19.003Z,73.75
2022-12-25T14:56:48.957Z,73.88
2022-12-25T14:59:20.744Z,73.56
2022-12-25T15:02:03.418Z,73.33
2022-12-25T15:04:32.043Z,73.03
2022-12-25T15:07:07.306Z,72.88
2022-12-25T15:09:36.241Z,72.81
2022-12-25T15:12:04.792Z,72.83
2022-12-25T15:14:36.391Z,72.74
2022-12-25T15:17:04.575Z,73.04
2022-12-25T15:19:38.651Z,73.50
2022-12-25T15:22:07.315Z,73.56
2022-12-25T15:24:35.421Z,73.67
2022-12-25T15:27:05.630Z,73.94
2022-12-25T15:32:24.349Z,74.31
2022-12-25T15:34:54.142Z,74.36
2022-12-25T15:37:22.104Z,74.43
2022-12-25T15:39:50.692Z,74.45
2022-12-25T15:42:22.994Z,77.61
2022-12-25T15:44:52.047Z,77.75
2022-12-25T15:47:20.606Z,76.13
2022-12-25T15:49:49.351Z,76.45
2022-12-25T15:52:17.838Z,76.10
2022-12-25T15:54:46.273Z,75.90
2022-12-25T15:57:18.524Z,75.13
2022-12-25T15:59:47.028Z,74.41
2022-12-25T16:02:18.835Z,74.04
2022-12-25T16:04:47.481Z,74.39
2022-12-25T16:07:18.292Z,74.06
2022-12-25T16:09:46.522Z,73.82
2022-12-25T16:12:14.648Z,73.68
2022-12-25T16:14:42.823Z,73.38
2022-12-25T16:17:14.300Z,73.70
2022-12-25T16:19:45.065Z,73.91
2022-12-25T16:22:28.780Z,74.02
2022-12-25T16:24:56.728Z,74.07
2022-12-25T16:27:25.370Z,73.98
2022-12-25T16:29:53.587Z,74.21
2022-12-25T16:32:21.814Z,74.53
2022-12-25T16:34:49.932Z,74.68
2022-12-25T16:37:18.382Z,74.34
2022-12-25T16:39:46.579Z,74.06
2022-12-25T16:42:14.468Z,73.88
2022-12-25T16:44:42.469Z,73.79
2022-12-25T16:47:10.650Z,73.76
2022-12-25T16:49:38.940Z,73.77
2022-12-25T16:52:07.300Z,73.65
2022-12-25T16:54:35.366Z,73.85
2022-12-25T16:57:03.408Z,73.97
2022-12-25T16:59:31.751Z,74.38
2022-12-25T17:01:59.816Z,74.43
2022-12-25T17:04:28.310Z,74.44
2022-12-25T17:06:56.607Z,74.41
2022-12-25T17:09:25.443Z,74.42
2022-12-25T17:11:53.455Z,74.73
2022-12-25T17:14:21.610Z,74.75
2022-12-25T17:16:49.717Z,74.68
2022-12-25T17:19:19.785Z,74.46
2022-12-25T17:21:48.002Z,74.32
2022-12-25T17:24:16.251Z,74.17
2022-12-25T17:26:45.370Z,74.33
2022-12-25T17:29:18.698Z,74.76
2022-12-25T17:31:49.666Z,74.71
2022-12-25T17:34:17.591Z,74.78
2022-12-25T17:36:45.461Z,75.02
2022-12-25T17:39:13.597Z,75.05
2022-12-25T17:41:41.621Z,75.15
2022-12-25T17:44:10.254Z,75.12
2022-12-25T17:46:38.808Z,74.95
2022-12-25T17:49:07.003Z,74.76
2022-12-25T17:51:35.373Z,75.04
2022-12-25T17:54:03.449Z,74.60
2022-12-25T17:56:32.459Z,74.62
2022-12-25T17:59:06.836Z,74.74
2022-12-25T18:01:38.608Z,75.03
2022-12-25T18:04:07.361Z,75.00
2022-12-25T18:06:36.723Z,75.01
2022-12-25T18:09:06.640Z,75.02
2022-12-25T18:11:39.619Z,74.94
2022-12-25T18:14:10.245Z,74.86
2022-12-25T18:16:40.303Z,74.68
2022-12-25T18:19:09.480Z,74.84
2022-12-25T18:21:37.678Z,74.85
2022-12-25T18:24:07.157Z,74.88
2022-12-25T18:26:35.811Z,74.64
2022-12-25T18:29:04.307Z,74.44
2022-12-25T18:31:32.494Z,74.50
2022-12-25T18:34:00.699Z,74.68
2022-12-25T18:36:29.988Z,74.64
2022-12-25T18:38:58.858Z,74.81
2022-12-25T18:41:29.065Z,75.12
2022-12-25T18:44:00.177Z,75.56
2022-12-25T18:46:28.807Z,75.77
2022-12-25T18:48:57.475Z,75.86
2022-12-25T18:51:29.969Z,75.77
2022-12-25T18:54:03.234Z,75.95
2022-12-25T18:56:31.437Z,76.35
2022-12-25T18:59:00.710Z,76.82
2022-12-25T19:01:29.140Z,77.20
2022-12-25T19:04:04.603Z,77.27
2022-12-25T19:06:34.011Z,77.39
2022-12-25T19:09:09.431Z,77.34
2022-12-25T19:11:46.176Z,77.37
2022-12-25T19:14:15.233Z,77.29
2022-12-25T19:16:43.692Z,77.16
2022-12-25T19:19:12.144Z,77.43
2022-12-25T19:21:40.559Z,77.68
2022-12-25T19:24:08.535Z,77.93
2022-12-25T19:26:37.710Z,77.87
2022-12-25T19:29:05.983Z,77.67
2022-12-25T19:31:34.030Z,77.62
2022-12-25T19:34:02.241Z,77.69
2022-12-25T19:36:31.387Z,77.66
2022-12-25T19:38:59.563Z,77.69
2022-12-25T19:41:27.574Z,77.88
2022-12-25T19:43:55.693Z,78.35
2022-12-25T19:46:27.166Z,78.74
2022-12-25T19:48:56.379Z,79.16
2022-12-25T19:51:27.347Z,79.39
2022-12-25T19:53:56.356Z,79.80
2022-12-25T19:56:26.163Z,80.03
2022-12-25T19:58:54.926Z,80.35
2022-12-25T20:01:25.721Z,80.84
2022-12-25T20:03:54.445Z,81.09
2022-12-25T20:06:27.171Z,81.08
2022-12-25T20:08:58.144Z,81.06
2022-12-25T20:11:27.916Z,81.03
2022-12-25T20:13:56.532Z,81.14
2022-12-25T20:16:26.104Z,81.08
2022-12-25T20:18:54.236Z,81.25
2022-12-25T20:21:23.138Z,81.39
2022-12-25T20:23:52.719Z,81.43
2022-12-25T20:26:23.819Z,81.59
2022-12-25T20:28:52.872Z,81.56
2022-12-25T20:31:27.849Z,81.63
2022-12-25T20:34:06.490Z,81.64
2022-12-25T20:36:37.547Z,81.77
2022-12-25T20:39:09.435Z,81.90
2022-12-25T20:41:40.734Z,81.86
2022-12-25T20:44:10.320Z,82.14
2022-12-25T20:46:39.058Z,82.39
2022-12-25T20:49:07.282Z,82.58
2022-12-25T20:51:35.471Z,82.69
2022-12-25T20:54:07.714Z,82.86
2022-12-25T20:56:36.661Z,82.92
2022-12-25T20:59:04.687Z,83.24
2022-12-25T21:01:33.075Z,83.44
2022-12-25T21:04:01.262Z,83.26
2022-12-25T21:06:29.308Z,83.34
2022-12-25T21:08:57.839Z,83.27
2022-12-25T21:11:26.640Z,83.18
2022-12-25T21:13:54.850Z,83.08
2022-12-25T21:16:24.077Z,83.32
2022-12-25T21:18:53.923Z,83.53
2022-12-25T21:21:22.327Z,83.74
2022-12-25T21:23:50.981Z,83.74
2022-12-25T21:26:25.189Z,83.79
2022-12-25T21:28:56.362Z,83.86
2022-12-25T21:31:24.971Z,83.91
2022-12-25T21:33:55.111Z,83.89
2022-12-25T21:36:33.813Z,83.96
2022-12-25T21:39:04.859Z,83.89
2022-12-25T21:41:35.852Z,83.90
2022-12-25T21:44:05.064Z,83.73
2022-12-25T21:46:34.399Z,83.54
2022-12-25T21:49:02.806Z,83.56
2022-12-25T21:51:51.387Z,83.44
2022-12-25T21:54:21.716Z,83.47
2022-12-25T21:56:50.384Z,83.38
2022-12-25T21:59:21.328Z,83.25
2022-12-25T22:01:51.882Z,83.07
2022-12-25T22:04:21.704Z,82.88
2022-12-25T22:07:08.799Z,82.65
2022-12-25T22:09:37.588Z,82.66
2022-12-25T22:12:28.531Z,82.64
2022-12-25T22:15:05.570Z,82.47
2022-12-25T22:18:01.189Z,82.28
2022-12-25T22:20:37.231Z,82.14
2022-12-25T22:23:05.511Z,81.91
2022-12-25T22:25:33.448Z,81.64
2022-12-25T22:28:01.806Z,81.47
2022-12-25T22:30:30.479Z,81.21
2022-12-25T22:32:58.490Z,80.95
2022-12-25T22:35:26.738Z,80.88
2022-12-25T22:37:54.868Z,80.75
2022-12-25T22:40:22.982Z,80.45
2022-12-25T22:42:54.817Z,80.24
2022-12-25T22:45:24.081Z,80.19
2022-12-25T22:47:52.395Z,80.07
2022-12-25T22:50:20.360Z,79.84
2022-12-25T22:52:48.351Z,79.96
2022-12-25T22:55:18.406Z,79.89
2022-12-25T22:57:46.431Z,79.81
2022-12-25T23:00:14.494Z,79.80
2022-12-25T23:02:42.924Z,79.76
2022-12-25T23:05:11.331Z,79.63
2022-12-25T23:07:39.575Z,79.59
2022-12-25T23:10:09.016Z,79.57
2022-12-25T23:12:55.642Z,79.47
2022-12-25T23:15:24.154Z,79.34
2022-12-25T23:18:10.658Z,79.27
2022-12-25T23:20:57.785Z,79.23
2022-12-25T23:23:44.140Z,79.15
2022-12-25T23:26:13.799Z,79.04
2022-12-25T23:29:01.873Z,78.84
2022-12-25T23:31:33.736Z,78.76
2022-12-25T23:34:02.633Z,78.55
2022-12-25T23:36:31.629Z,78.43
2022-12-25T23:39:06.860Z,78.50
2022-12-25T23:41:42.204Z,78.40
2022-12-25T23:44:11.774Z,78.44
2022-12-25T23:46:40.901Z,78.56
2022-12-25T23:49:10.213Z,78.62
2022-12-25T23:51:44.640Z,78.55
2022-12-25T23:54:16.046Z,78.50
2022-12-25T23:56:44.633Z,78.57
2022-12-25T23:59:13.570Z,78.53
